createdAt,value
2023-01-09T00:00:48.704Z,89.18
2023-01-09T00:03:15.152Z,89.50
2023-01-09T00:05:41.656Z,89.45
2023-01-09T00:08:08.233Z,89.66
2023-01-09T00:10:34.893Z,89.71
2023-01-09T00:13:01.409Z,89.30
2023-01-09T00:15:27.844Z,89.53
2023-01-09T00:17:54.286Z,89.37
2023-01-09T00:20:20.917Z,90.03
2023-01-09T00:22:47.329Z,90.73
2023-01-09T00:25:13.820Z,90.71
2023-01-09T00:27:40.313Z,91.15
2023-01-09T00:30:07.428Z,91.42
2023-01-09T00:32:33.908Z,91.54
2023-01-09T00:35:00.313Z,92.00
2023-01-09T00:37:26.701Z,92.28
2023-01-09T00:39:53.118Z,92.15
2023-01-09T00:42:22.823Z,92.26
2023-01-09T00:44:53.108Z,92.67
2023-01-09T00:47:27.893Z,92.70
2023-01-09T00:49:58.571Z,91.95
2023-01-09T00:52:25.144Z,92.04
2023-01-09T00:54:51.774Z,92.06
2023-01-09T00:57:18.348Z,92.24
2023-01-09T00:59:44.836Z,92.41
2023-01-09T01:02:11.531Z,92.63
2023-01-09T01:04:56.705Z,92.92
2023-01-09T01:07:38.333Z,93.27
2023-01-09T01:10:08.064Z,93.32
2023-01-09T01:12:34.508Z,93.43
2023-01-09T01:15:01.025Z,93.21
2023-01-09T01:17:27.490Z,92.99
2023-01-09T01:19:54.101Z,92.98
2023-01-09T01:22:20.642Z,92.50
2023-01-09T01:24:47.100Z,92.16
2023-01-09T01:27:14.324Z,92.12
2023-01-09T01:29:40.730Z,92.12
2023-01-09T01:32:07.942Z,91.79
2023-01-09T01:34:34.685Z,91.78
2023-01-09T01:37:01.149Z,91.43
2023-01-09T01:39:27.582Z,91.48
2023-01-09T01:41:54.167Z,91.27
2023-01-09T01:44:58.234Z,92.25
2023-01-09T01:47:42.980Z,92.41
2023-01-09T01:50:16.522Z,91.91
2023-01-09T01:52:48.020Z,91.76
2023-01-09T01:55:15.816Z,91.59
2023-01-09T01:57:47.348Z,92.02
2023-01-09T02:00:14.073Z,91.78
2023-01-09T02:02:40.743Z,91.67
2023-01-09T02:05:07.417Z,91.81
2023-01-09T02:07:34.908Z,91.93
2023-01-09T02:10:01.766Z,92.33
2023-01-09T02:12:28.631Z,92.10
2023-01-09T02:15:00.881Z,92.43
2023-01-09T02:18:04.565Z,93.03
2023-01-09T02:20:50.568Z,92.89
2023-01-09T02:23:33.830Z,93.73
2023-01-09T02:26:28.882Z,93.22
2023-01-09T02:29:17.166Z,93.92
2023-01-09T02:31:56.607Z,93.79
2023-01-09T02:34:55.865Z,94.05
2023-01-09T02:37:22.235Z,93.02
2023-01-09T02:40:08.551Z,94.21
2023-01-09T02:42:37.317Z,93.49
2023-01-09T02:45:04.257Z,93.39
2023-01-09T02:47:30.585Z,93.17
2023-01-09T02:50:00.725Z,93.43
2023-01-09T02:52:48.834Z,94.33
2023-01-09T02:55:36.747Z,93.87
2023-01-09T02:58:24.472Z,93.07
2023-01-09T03:01:24.644Z,93.62
2023-01-09T03:04:00.426Z,92.88
2023-01-09T03:06:45.105Z,93.08
2023-01-09T03:09:20.421Z,92.23
2023-01-09T03:11:51.643Z,91.93
2023-01-09T03:14:21.985Z,92.01
2023-01-09T03:16:53.042Z,91.78
2023-01-09T03:19:24.098Z,92.07
2023-01-09T03:21:52.071Z,91.33
2023-01-09T03:24:18.477Z,91.37
2023-01-09T03:26:45.148Z,91.21
2023-01-09T03:29:11.538Z,91.22
2023-01-09T03:31:38.028Z,91.10
2023-01-09T03:34:04.565Z,91.08
2023-01-09T03:36:31.131Z,91.04
2023-01-09T03:38:57.536Z,90.96
2023-01-09T03:41:24.087Z,90.77
2023-01-09T03:43:50.623Z,90.60
2023-01-09T03:46:17.430Z,90.72
2023-01-09T03:48:43.852Z,90.47
2023-01-09T03:51:10.610Z,90.39
2023-01-09T03:53:37.061Z,90.70
2023-01-09T03:56:03.643Z,90.79
2023-01-09T03:58:30.354Z,90.49
2023-01-09T04:01:03.187Z,90.82
2023-01-09T04:03:29.797Z,90.38
2023-01-09T04:05:56.389Z,90.29
2023-01-09T04:08:22.850Z,90.21
2023-01-09T04:10:51.026Z,90.31
2023-01-09T04:13:18.187Z,90.38
2023-01-09T04:15:44.742Z,90.45
2023-01-09T04:18:11.234Z,90.36
2023-01-09T04:20:37.734Z,90.37
2023-01-09T04:23:04.325Z,90.31
2023-01-09T04:25:30.749Z,90.19
2023-01-09T04:27:57.486Z,90.17
2023-01-09T04:30:24.038Z,89.96
2023-01-09T04:32:51.973Z,89.69
2023-01-09T04:35:19.503Z,89.64
2023-01-09T04:37:45.951Z,89.54
2023-01-09T04:40:12.881Z,89.67
2023-01-09T04:42:40.826Z,89.74
2023-01-09T04:45:09.134Z,89.62
2023-01-09T04:47:35.550Z,89.25
2023-01-09T04:50:02.301Z,89.39
2023-01-09T04:52:28.995Z,89.08
2023-01-09T04:54:55.385Z,89.19
2023-01-09T04:57:21.790Z,89.57
2023-01-09T04:59:48.185Z,89.35
2023-01-09T05:02:14.829Z,89.94
2023-01-09T05:04:41.413Z,89.73
2023-01-09T05:07:07.847Z,89.57
2023-01-09T05:09:34.709Z,89.94
2023-01-09T05:12:01.957Z,89.74
2023-01-09T05:14:28.549Z,89.57
2023-01-09T05:16:55.136Z,89.73
2023-01-09T05:19:21.674Z,89.49
2023-01-09T05:21:48.134Z,89.36
2023-01-09T05:24:14.648Z,89.71
2023-01-09T05:26:41.174Z,89.74
2023-01-09T05:29:07.597Z,89.40
2023-01-09T05:31:34.140Z,89.17
2023-01-09T05:34:00.834Z,88.49
2023-01-09T05:36:28.192Z,88.49
2023-01-09T05:38:54.626Z,88.59
2023-01-09T05:41:23.542Z,88.47
2023-01-09T05:43:50.568Z,88.57
2023-01-09T05:46:17.041Z,88.98
2023-01-09T05:48:44.536Z,89.07
2023-01-09T05:51:11.853Z,89.40
2023-01-09T05:53:38.332Z,89.35
2023-01-09T05:56:05.028Z,89.47
2023-01-09T05:58:31.420Z,89.46
2023-01-09T06:00:58.680Z,89.56
2023-01-09T06:03:25.219Z,89.69
2023-01-09T06:05:51.759Z,89.52
2023-01-09T06:08:18.208Z,89.68
2023-01-09T06:10:45.973Z,89.80
2023-01-09T06:13:12.444Z,89.88
2023-01-09T06:15:39.113Z,89.85
2023-01-09T06:18:05.606Z,89.90
2023-01-09T06:20:32.126Z,89.59
2023-01-09T06:22:58.559Z,89.50
2023-01-09T06:25:26.270Z,89.40
2023-01-09T06:27:52.921Z,89.34
2023-01-09T06:30:20.128Z,89.40
2023-01-09T06:32:49.950Z,89.77
2023-01-09T06:35:20.950Z,89.70
2023-01-09T06:37:48.272Z,89.51
2023-01-09T06:40:15.094Z,89.77
2023-01-09T06:42:45.982Z,90.05
2023-01-09T06:45:13.479Z,89.47
2023-01-09T06:47:40.339Z,89.59
2023-01-09T06:50:09.191Z,89.54
2023-01-09T06:52:36.737Z,89.72
2023-01-09T06:55:03.866Z,89.56
2023-01-09T06:57:30.674Z,89.57
2023-01-09T06:59:57.802Z,89.86
2023-01-09T07:02:24.234Z,89.95
2023-01-09T07:04:50.633Z,90.19
2023-01-09T07:07:18.401Z,90.62
2023-01-09T07:09:44.882Z,91.22
2023-01-09T07:12:11.272Z,91.11
2023-01-09T07:14:37.712Z,91.20
2023-01-09T07:17:04.151Z,91.23
2023-01-09T07:19:30.541Z,91.57
2023-01-09T07:21:56.955Z,92.06
2023-01-09T07:24:23.552Z,92.06
2023-01-09T07:26:50.034Z,92.06
2023-01-09T07:29:16.473Z,91.58
2023-01-09T07:31:43.037Z,91.52
2023-01-09T07:34:09.436Z,91.55
2023-01-09T07:36:35.846Z,91.84
2023-01-09T07:39:02.349Z,91.81
2023-01-09T07:41:28.795Z,92.14
2023-01-09T07:43:57.033Z,92.03
2023-01-09T07:46:23.545Z,92.21
2023-01-09T07:48:49.951Z,92.43
2023-01-09T07:51:16.428Z,92.73
2023-01-09T07:53:42.827Z,92.77
2023-01-09T07:56:09.248Z,92.69
2023-01-09T07:58:35.732Z,93.05
2023-01-09T08:01:02.209Z,92.75
2023-01-09T08:03:28.786Z,92.89
2023-01-09T08:05:55.337Z,92.72
2023-01-09T08:08:22.661Z,92.82
2023-01-09T08:10:49.132Z,92.75
2023-01-09T08:13:15.595Z,92.85
2023-01-09T08:15:42.061Z,92.44
2023-01-09T08:18:08.771Z,92.58
2023-01-09T08:20:35.209Z,92.33
2023-01-09T08:23:01.751Z,92.49
2023-01-09T08:25:28.113Z,92.52
2023-01-09T08:27:54.530Z,92.28
2023-01-09T08:30:21.576Z,92.38
2023-01-09T08:32:50.757Z,92.29
2023-01-09T08:35:17.502Z,91.81
2023-01-09T08:37:45.615Z,91.91
2023-01-09T08:40:13.562Z,91.23
2023-01-09T08:42:59.341Z,91.20
2023-01-09T08:45:44.210Z,91.31
2023-01-09T08:48:10.826Z,91.68
2023-01-09T08:50:37.604Z,91.60
2023-01-09T08:53:04.244Z,91.66
2023-01-09T08:55:30.715Z,92.12
2023-01-09T08:57:57.193Z,92.06
2023-01-09T09:00:24.968Z,91.98
2023-01-09T09:02:58.478Z,92.34
2023-01-09T09:05:26.581Z,92.41
2023-01-09T09:07:54.838Z,92.25
2023-01-09T09:10:23.726Z,92.59
2023-01-09T09:12:53.109Z,92.98
2023-01-09T09:15:24.116Z,92.38
2023-01-09T09:17:59.395Z,92.95
2023-01-09T09:20:29.197Z,92.62
2023-01-09T09:22:55.592Z,91.99
2023-01-09T09:25:22.767Z,92.07
2023-01-09T09:27:49.635Z,92.21
2023-01-09T09:30:18.222Z,92.08
2023-01-09T09:32:45.605Z,91.88
2023-01-09T09:35:12.420Z,91.40
2023-01-09T09:37:39.086Z,91.58
2023-01-09T09:40:17.921Z,91.51
2023-01-09T09:43:26.464Z,91.62
2023-01-09T09:46:02.787Z,90.84
2023-01-09T09:48:44.419Z,90.42
2023-01-09T09:51:22.420Z,90.92
2023-01-09T09:53:53.797Z,90.57
2023-01-09T09:56:23.136Z,89.80
2023-01-09T09:58:53.960Z,89.81
2023-01-09T10:01:33.612Z,90.36
2023-01-09T10:04:04.430Z,89.44
2023-01-09T10:06:34.204Z,89.12
2023-01-09T10:09:25.406Z,89.64
2023-01-09T10:11:54.727Z,88.76
2023-01-09T10:14:24.656Z,88.09
2023-01-09T10:17:03.436Z,87.66
2023-01-09T10:19:33.118Z,87.97
2023-01-09T10:22:47.316Z,88.23
2023-01-09T10:25:47.215Z,87.63
2023-01-09T10:28:31.834Z,87.73
2023-01-09T10:31:24.627Z,87.76
2023-01-09T10:34:14.716Z,88.16
2023-01-09T10:36:47.026Z,86.27
2023-01-09T10:39:34.507Z,87.00
2023-01-09T10:42:22.802Z,86.41
2023-01-09T10:44:56.207Z,86.15
2023-01-09T10:47:35.213Z,85.78
2023-01-09T10:50:18.062Z,86.01
2023-01-09T10:52:45.632Z,85.29
2023-01-09T10:55:39.690Z,85.53
2023-01-09T10:58:14.612Z,85.31
2023-01-09T11:00:42.112Z,84.38
2023-01-09T11:03:21.161Z,84.49
2023-01-09T11:05:54.373Z,84.04
2023-01-09T11:08:35.673Z,84.42
2023-01-09T11:11:03.098Z,84.01
2023-01-09T11:13:34.374Z,83.97
2023-01-09T11:16:23.509Z,84.09
2023-01-09T11:18:54.291Z,84.02
2023-01-09T11:21:34.054Z,83.98
2023-01-09T11:24:18.890Z,84.11
2023-01-09T11:26:47.043Z,83.04
2023-01-09T11:29:19.081Z,82.31
2023-01-09T11:31:58.211Z,81.52
2023-01-09T11:34:31.468Z,81.81
2023-01-09T11:37:10.568Z,81.89
2023-01-09T11:39:41.225Z,81.50
2023-01-09T11:42:20.199Z,80.55
2023-01-09T11:44:46.736Z,79.37
2023-01-09T11:47:39.129Z,78.86
2023-01-09T11:50:20.676Z,78.43
2023-01-09T11:53:07.258Z,77.36
2023-01-09T11:55:41.823Z,78.04
2023-01-09T11:58:17.803Z,77.77
2023-01-09T12:00:50.693Z,77.61
2023-01-09T12:03:51.186Z,77.48
2023-01-09T12:06:27.559Z,77.42
2023-01-09T12:09:04.831Z,76.68
2023-01-09T12:12:03.044Z,76.69
2023-01-09T12:14:50.583Z,77.15
2023-01-09T12:17:29.797Z,77.72
2023-01-09T12:20:20.817Z,78.22
2023-01-09T12:23:00.975Z,77.61
2023-01-09T12:25:56.790Z,77.83
2023-01-09T12:28:38.466Z,78.18
2023-01-09T12:31:07.787Z,77.91
2023-01-09T12:33:46.818Z,78.81
2023-01-09T12:36:25.648Z,78.89
2023-01-09T12:38:51.974Z,78.53
2023-01-09T12:41:53.412Z,78.80
2023-01-09T12:44:48.181Z,79.18
2023-01-09T12:47:34.843Z,79.29
2023-01-09T12:50:19.820Z,79.33
2023-01-09T12:53:07.669Z,79.45
2023-01-09T12:55:39.698Z,79.97
2023-01-09T12:58:41.336Z,81.10
2023-01-09T13:01:15.155Z,81.09
2023-01-09T13:03:47.363Z,81.17
2023-01-09T13:06:18.025Z,82.14
2023-01-09T13:08:53.242Z,82.49
2023-01-09T13:11:31.823Z,83.30
2023-01-09T13:14:22.035Z,83.58
2023-01-09T13:16:52.416Z,83.00
2023-01-09T13:19:36.818Z,83.78
2023-01-09T13:22:05.723Z,82.95
2023-01-09T13:24:53.339Z,83.53
2023-01-09T13:27:22.954Z,83.17
2023-01-09T13:30:06.615Z,84.08
2023-01-09T13:33:11.924Z,83.85
2023-01-09T13:35:53.744Z,84.07
2023-01-09T13:38:23.737Z,83.08
2023-01-09T13:41:28.960Z,83.73
2023-01-09T13:43:59.582Z,82.97
2023-01-09T13:46:43.275Z,83.31
2023-01-09T13:49:43.803Z,83.34
2023-01-09T13:52:39.254Z,83.51
2023-01-09T13:55:11.952Z,83.13
2023-01-09T13:57:43.255Z,83.58
2023-01-09T14:00:12.698Z,83.18
2023-01-09T14:02:39.093Z,82.78
2023-01-09T14:05:11.304Z,83.32
2023-01-09T14:07:40.348Z,83.11
2023-01-09T14:10:25.412Z,83.70
2023-01-09T14:12:55.708Z,83.33
2023-01-09T14:15:22.014Z,83.35
2023-01-09T14:17:49.771Z,82.92
2023-01-09T14:20:34.570Z,84.07
2023-01-09T14:25:48.556Z,83.13
2023-01-09T14:28:28.950Z,83.82
2023-01-09T14:30:55.374Z,82.50
2023-01-09T14:33:25.432Z,82.33
2023-01-09T14:35:56.568Z,82.71
2023-01-09T14:38:34.482Z,82.50
2023-01-09T14:41:07.545Z,82.65
2023-01-09T14:43:53.421Z,83.25
2023-01-09T14:46:24.157Z,82.36
2023-01-09T14:49:19.148Z,83.74
2023-01-09T14:51:51.695Z,83.20
2023-01-09T14:54:29.160Z,83.49
2023-01-09T14:57:05.744Z,83.95
2023-01-09T14:59:38.686Z,83.88
2023-01-09T15:02:11.157Z,84.28
2023-01-09T15:04:41.967Z,84.22
2023-01-09T15:07:32.401Z,84.70
2023-01-09T15:10:05.116Z,84.40
2023-01-09T15:12:40.146Z,83.80
2023-01-09T15:15:13.135Z,83.61
2023-01-09T15:17:43.087Z,83.61
2023-01-09T15:20:20.703Z,84.53
2023-01-09T15:22:54.507Z,84.52
2023-01-09T15:25:39.016Z,85.20
2023-01-09T15:28:28.924Z,85.59
2023-01-09T15:31:02.942Z,84.78
2023-01-09T15:33:29.897Z,84.59
2023-01-09T15:36:02.059Z,84.92
2023-01-09T15:38:34.416Z,85.39
2023-01-09T15:41:06.806Z,85.89
2023-01-09T15:43:34.808Z,85.97
2023-01-09T15:46:01.573Z,86.25
2023-01-09T15:48:32.370Z,86.33
2023-01-09T15:51:02.489Z,87.22
2023-01-09T15:53:29.758Z,86.68
2023-01-09T15:56:30.268Z,87.85
2023-01-09T15:58:58.489Z,86.98
2023-01-09T16:01:30.347Z,87.32
2023-01-09T16:04:16.385Z,87.96
2023-01-09T16:06:51.034Z,88.07
2023-01-09T16:09:21.831Z,87.29
2023-01-09T16:11:55.384Z,87.90
2023-01-09T16:14:38.685Z,88.23
2023-01-09T16:17:08.800Z,87.56
2023-01-09T16:19:41.409Z,88.04
2023-01-09T16:22:27.833Z,88.86
2023-01-09T16:24:57.400Z,87.15
2023-01-09T16:27:33.327Z,88.06
2023-01-09T16:30:06.692Z,87.67
2023-01-09T16:32:35.733Z,87.53
2023-01-09T16:35:06.199Z,87.33
2023-01-09T16:37:33.754Z,87.55
2023-01-09T16:40:18.524Z,88.75
2023-01-09T16:43:01.286Z,87.73
2023-01-09T16:45:32.316Z,87.93
2023-01-09T16:47:59.455Z,87.83
2023-01-09T16:50:26.447Z,88.59
2023-01-09T16:52:52.968Z,88.15
2023-01-09T16:55:19.510Z,88.51
2023-01-09T16:57:46.021Z,88.24
2023-01-09T17:00:18.434Z,89.06
2023-01-09T17:02:45.274Z,88.51
2023-01-09T17:05:11.864Z,88.42
2023-01-09T17:07:38.285Z,88.42
2023-01-09T17:10:06.097Z,88.46
2023-01-09T17:12:32.544Z,88.52
2023-01-09T17:15:00.866Z,88.27
2023-01-09T17:17:27.488Z,88.49
2023-01-09T17:19:53.915Z,88.60
2023-01-09T17:22:20.381Z,88.43
2023-01-09T17:25:08.742Z,88.39
2023-01-09T17:27:56.197Z,88.42
2023-01-09T17:30:22.898Z,88.25
2023-01-09T17:32:49.481Z,88.17
2023-01-09T17:35:16.296Z,88.28
2023-01-09T17:37:43.113Z,87.99
2023-01-09T17:40:20.816Z,89.21
2023-01-09T17:42:47.268Z,88.12
2023-01-09T17:45:14.246Z,88.11
2023-01-09T17:47:40.926Z,88.04
2023-01-09T17:50:15.897Z,88.15
2023-01-09T17:52:42.410Z,87.80
2023-01-09T17:55:09.318Z,87.69
2023-01-09T17:57:35.717Z,87.88
2023-01-09T18:00:02.472Z,87.78
2023-01-09T18:02:28.923Z,88.08
2023-01-09T18:04:55.388Z,88.04
2023-01-09T18:07:21.891Z,88.14
2023-01-09T18:09:48.549Z,88.35
2023-01-09T18:12:14.974Z,88.13
2023-01-09T18:14:42.150Z,88.35
2023-01-09T18:17:11.988Z,88.72
2023-01-09T18:19:38.521Z,88.37
2023-01-09T18:22:04.979Z,88.15
2023-01-09T18:24:31.368Z,88.02
2023-01-09T18:26:57.767Z,88.34
2023-01-09T18:29:24.283Z,88.40
2023-01-09T18:31:51.685Z,88.64
2023-01-09T18:34:18.131Z,88.36
2023-01-09T18:36:44.636Z,88.55
2023-01-09T18:39:12.102Z,88.34
2023-01-09T18:41:38.484Z,88.17
2023-01-09T18:44:05.032Z,87.96
2023-01-09T18:46:32.311Z,88.34
2023-01-09T18:49:01.133Z,88.33
2023-01-09T18:51:28.689Z,88.38
2023-01-09T18:53:55.799Z,88.76
2023-01-09T18:56:23.287Z,88.66
2023-01-09T18:58:49.801Z,88.92
2023-01-09T19:01:16.438Z,89.03
2023-01-09T19:03:43.289Z,88.92
2023-01-09T19:06:10.630Z,89.32
2023-01-09T19:08:37.140Z,89.37
2023-01-09T19:11:04.352Z,89.17
2023-01-09T19:13:33.152Z,89.39
2023-01-09T19:16:00.847Z,89.43
2023-01-09T19:18:29.320Z,89.36
2023-01-09T19:20:55.817Z,89.40
2023-01-09T19:23:25.638Z,89.66
2023-01-09T19:25:53.788Z,89.77
2023-01-09T19:28:21.039Z,90.14
2023-01-09T19:30:47.455Z,90.20
2023-01-09T19:33:13.877Z,90.06
2023-01-09T19:35:40.385Z,90.30
2023-01-09T19:38:06.804Z,90.18
2023-01-09T19:40:33.222Z,90.23
2023-01-09T19:42:59.645Z,90.03
2023-01-09T19:45:26.039Z,90.11
2023-01-09T19:47:52.528Z,89.93
2023-01-09T19:50:19.103Z,89.94
2023-01-09T19:52:45.733Z,90.06
2023-01-09T19:55:14.144Z,90.16
2023-01-09T19:57:44.185Z,90.56
2023-01-09T20:00:12.622Z,89.99
2023-01-09T20:02:39.553Z,90.24
2023-01-09T20:05:07.295Z,90.10
2023-01-09T20:07:34.847Z,90.07
2023-01-09T20:10:01.511Z,90.08
2023-01-09T20:12:27.914Z,89.59
2023-01-09T20:14:54.365Z,89.86
2023-01-09T20:17:20.845Z,89.77
2023-01-09T20:19:47.232Z,89.99
2023-01-09T20:22:13.782Z,89.63
2023-01-09T20:24:40.364Z,89.65
2023-01-09T20:27:07.209Z,89.95
2023-01-09T20:29:33.802Z,89.64
2023-01-09T20:32:01.248Z,89.76
2023-01-09T20:34:27.716Z,90.01
2023-01-09T20:36:54.676Z,89.99
2023-01-09T20:39:21.555Z,89.89
2023-01-09T20:41:48.379Z,89.84
2023-01-09T20:44:15.689Z,89.84
2023-01-09T20:46:47.362Z,90.19
2023-01-09T20:49:15.975Z,89.80
2023-01-09T20:51:48.245Z,90.28
2023-01-09T20:54:16.313Z,89.97
2023-01-09T20:56:44.145Z,89.97
2023-01-09T20:59:16.942Z,89.94
2023-01-09T21:01:43.651Z,89.67
2023-01-09T21:04:10.219Z,89.89
2023-01-09T21:06:36.810Z,89.71
2023-01-09T21:09:05.026Z,89.71
2023-01-09T21:11:33.558Z,89.72
2023-01-09T21:14:00.193Z,89.64
2023-01-09T21:16:26.885Z,89.62
2023-01-09T21:18:54.750Z,89.64
2023-01-09T21:21:24.489Z,90.04
2023-01-09T21:23:53.442Z,89.92
2023-01-09T21:26:24.775Z,90.05
2023-01-09T21:28:55.159Z,90.00
2023-01-09T21:31:29.847Z,90.72
2023-01-09T21:33:56.522Z,90.06
2023-01-09T21:36:23.283Z,89.93
2023-01-09T21:38:52.097Z,89.82
2023-01-09T21:41:38.255Z,90.08
2023-01-09T21:44:24.738Z,90.06
2023-01-09T21:46:55.844Z,89.86
2023-01-09T21:49:25.404Z,90.08
2023-01-09T21:51:55.704Z,90.52
2023-01-09T21:54:23.277Z,90.76
2023-01-09T21:56:50.774Z,89.98
2023-01-09T21:59:17.363Z,89.89
2023-01-09T22:01:44.156Z,90.12
2023-01-09T22:04:14.829Z,90.33
2023-01-09T22:06:41.361Z,89.86
2023-01-09T22:09:07.847Z,90.08
2023-01-09T22:11:34.306Z,89.84
2023-01-09T22:14:00.731Z,89.95
2023-01-09T22:16:27.923Z,90.03
2023-01-09T22:18:55.986Z,90.11
2023-01-09T22:21:23.541Z,90.08
2023-01-09T22:23:50.510Z,89.71
2023-01-09T22:26:18.553Z,90.06
2023-01-09T22:28:46.021Z,89.81
2023-01-09T22:31:16.896Z,89.85
2023-01-09T22:33:43.701Z,89.64
2023-01-09T22:36:12.065Z,89.61
2023-01-09T22:38:38.491Z,89.58
2023-01-09T22:41:05.280Z,89.68
2023-01-09T22:43:32.255Z,89.68
2023-01-09T22:46:03.457Z,89.92
2023-01-09T22:48:34.621Z,90.18
2023-01-09T22:51:02.760Z,90.27
2023-01-09T22:53:30.724Z,90.25
2023-01-09T22:55:59.239Z,90.43
2023-01-09T22:58:27.265Z,90.34
2023-01-09T23:00:54.482Z,90.65
2023-01-09T23:03:21.004Z,90.64
2023-01-09T23:05:47.428Z,90.83
2023-01-09T23:08:14.487Z,90.75
2023-01-09T23:10:42.221Z,90.73
2023-01-09T23:13:08.667Z,90.57
2023-01-09T23:15:35.229Z,90.71
2023-01-09T23:18:01.643Z,90.33
2023-01-09T23:20:28.025Z,90.31
2023-01-09T23:22:54.437Z,90.50
2023-01-09T23:25:20.939Z,90.54
2023-01-09T23:27:47.385Z,90.29
2023-01-09T23:30:14.053Z,90.61
2023-01-09T23:32:40.489Z,90.33
2023-01-09T23:35:07.265Z,90.46
2023-01-09T23:37:34.102Z,90.17
2023-01-09T23:40:00.539Z,90.04
2023-01-09T23:42:45.438Z,90.14
2023-01-09T23:45:11.891Z,90.11
2023-01-09T23:47:38.364Z,90.30
2023-01-09T23:50:06.916Z,90.01
2023-01-09T23:52:33.315Z,89.98
2023-01-09T23:54:59.777Z,90.05
2023-01-09T23:57:26.187Z,89.68
2023-01-09T23:59:52.564Z,89.51
